createdAt,value
2016-09-13T00:00:12.218Z,59.58
2016-09-13T00:01:22.513Z,59.58
2016-09-13T00:02:32.211Z,59.48
2016-09-13T00:03:42.181Z,59.45
2016-09-13T00:04:52.469Z,59.45
2016-09-13T00:06:02.776Z,59.38
2016-09-13T00:07:12.763Z,59.35
2016-09-13T00:08:23.076Z,59.35
2016-09-13T00:09:33.066Z,59.45
2016-09-13T00:10:43.404Z,59.74
2016-09-13T00:11:52.797Z,59.55
2016-09-13T00:13:03.093Z,59.83
2016-09-13T00:14:13.078Z,59.64
2016-09-13T00:15:23.063Z,59.25
2016-09-13T00:16:32.729Z,59.45
2016-09-13T00:17:42.427Z,59.64
2016-09-13T00:18:51.804Z,59.25
2016-09-13T00:20:01.777Z,59.55
2016-09-13T00:21:12.082Z,59.45
2016-09-13T00:22:22.068Z,59.45
2016-09-13T00:23:31.735Z,59.35
2016-09-13T00:24:41.418Z,59.35
2016-09-13T00:25:51.413Z,59.55
2016-09-13T00:27:01.721Z,59.55
2016-09-13T00:28:12.014Z,59.8
2016-09-13T00:29:22.313Z,59.64
2016-09-13T00:30:32.590Z,59.52
2016-09-13T00:31:42.894Z,59.55
2016-09-13T00:32:52.873Z,59.42
2016-09-13T00:34:02.549Z,59.42
2016-09-13T00:35:12.537Z,59.42
2016-09-13T00:36:22.544Z,59.42
2016-09-13T00:37:32.837Z,59.32
2016-09-13T00:38:43.135Z,59.74
2016-09-13T00:39:53.137Z,59.32
2016-09-13T00:41:03.439Z,59.32
2016-09-13T00:42:13.729Z,59.71
2016-09-13T00:43:23.409Z,59.32
2016-09-13T00:44:33.700Z,59.32
2016-09-13T00:45:43.074Z,59.13
2016-09-13T00:46:53.368Z,59.42
2016-09-13T00:48:03.349Z,59.52
2016-09-13T00:49:13.339Z,59.42
2016-09-13T00:50:23.648Z,59.71
2016-09-13T00:51:33.315Z,59.42
2016-09-13T00:52:43.607Z,59.52
2016-09-13T00:53:53.578Z,59.52
2016-09-13T00:55:03.270Z,59.42
2016-09-13T00:56:13.262Z,59.42
2016-09-13T00:57:23.554Z,59.32
2016-09-13T00:58:33.837Z,59.32
2016-09-13T00:59:43.503Z,59.32
2016-09-13T01:00:53.788Z,59.32
2016-09-13T01:02:03.782Z,59.32
2016-09-13T01:03:14.062Z,59.52
2016-09-13T01:04:24.034Z,59.71
2016-09-13T01:05:33.705Z,59.32
2016-09-13T01:06:43.069Z,59.39
2016-09-13T01:07:53.059Z,59.3
2016-09-13T01:09:03.021Z,59.48
2016-09-13T01:10:13.302Z,59.3
2016-09-13T01:11:23.280Z,59.48
2016-09-13T01:12:33.566Z,59.3
2016-09-13T01:13:43.879Z,59.39
2016-09-13T01:14:53.868Z,59.39
2016-09-13T01:16:04.171Z,59.39
2016-09-13T01:17:14.155Z,59.39
2016-09-13T01:18:24.134Z,59.39
2016-09-13T01:19:34.436Z,59.39
2016-09-13T01:20:44.438Z,59.3
2016-09-13T01:21:54.110Z,59.39
2016-09-13T01:23:04.394Z,59.39
2016-09-13T01:24:14.374Z,59.3
2016-09-13T01:25:24.656Z,59.3
2016-09-13T01:26:34.936Z,59.3
2016-09-13T01:27:45.243Z,59.2
2016-09-13T01:28:55.533Z,59.3
2016-09-13T01:30:05.516Z,59.1
2016-09-13T01:31:15.801Z,59.1
2016-09-13T01:32:25.779Z,59.3
2016-09-13T01:33:36.076Z,59.3
2016-09-13T01:34:46.069Z,59.3
2016-09-13T01:35:55.740Z,59.58
2016-09-13T01:37:06.061Z,59.3
2016-09-13T01:38:16.053Z,59.39
2016-09-13T01:39:26.046Z,59.48
2016-09-13T01:40:36.348Z,59.3
2016-09-13T01:41:46.648Z,59.68
2016-09-13T01:42:56.629Z,59.39
2016-09-13T01:44:06.956Z,59.78
2016-09-13T01:45:16.945Z,59.39
2016-09-13T01:46:26.936Z,59.3
2016-09-13T01:47:37.238Z,59.39
2016-09-13T01:48:47.528Z,59.1
2016-09-13T01:49:57.195Z,59.1
2016-09-13T01:51:06.872Z,59.2
2016-09-13T01:52:16.533Z,59.39
2016-09-13T01:53:26.505Z,59.39
2016-09-13T01:54:36.801Z,59.39
2016-09-13T01:55:47.020Z,59.39
2016-09-13T01:56:57.319Z,59.45
2016-09-13T01:58:07.602Z,59.1
2016-09-13T01:59:17.585Z,59.2
2016-09-13T02:00:27.285Z,59.36
2016-09-13T02:01:37.282Z,59.48
2016-09-13T02:02:47.569Z,59.58
2016-09-13T02:03:57.555Z,59.65
2016-09-13T02:05:07.535Z,59.75
2016-09-13T02:06:17.503Z,59.36
2016-09-13T02:07:27.811Z,59.65
2016-09-13T02:08:38.102Z,59.45
2016-09-13T02:09:48.075Z,59.55
2016-09-13T02:10:58.361Z,59.65
2016-09-13T02:12:08.578Z,59.45
2016-09-13T02:13:18.884Z,59.55
2016-09-13T02:14:28.863Z,59.55
2016-09-13T02:15:39.155Z,59.45
2016-09-13T02:16:49.434Z,59.65
2016-09-13T02:17:59.116Z,59.45
2016-09-13T02:19:09.403Z,59.45
2016-09-13T02:20:19.385Z,59.65
2016-09-13T02:21:29.057Z,59.45
2016-09-13T02:22:39.037Z,59.07
2016-09-13T02:23:49.029Z,59.36
2016-09-13T02:24:59.331Z,59.17
2016-09-13T02:26:09.617Z,59.27
2016-09-13T02:27:19.898Z,59.45
2016-09-13T02:28:29.901Z,59.65
2016-09-13T02:29:40.197Z,59.45
2016-09-13T02:30:49.875Z,59.45
2016-09-13T02:32:00.167Z,59.75
2016-09-13T02:33:10.158Z,59.75
2016-09-13T02:34:20.455Z,59.45
2016-09-13T02:35:30.437Z,59.45
2016-09-13T02:36:40.427Z,59.45
2016-09-13T02:37:50.712Z,59.75
2016-09-13T02:39:00.701Z,59.27
2016-09-13T02:40:10.067Z,59.27
2016-09-13T02:41:20.051Z,59.07
2016-09-13T02:42:30.332Z,59.17
2016-09-13T02:43:40.612Z,59.27
2016-09-13T02:44:50.891Z,59.07
2016-09-13T02:46:01.186Z,59.27
2016-09-13T02:47:11.167Z,59.07
2016-09-13T02:48:21.459Z,59.27
2016-09-13T02:49:31.457Z,59.27
2016-09-13T02:50:41.755Z,59.75
2016-09-13T02:51:52.041Z,59.75
2016-09-13T02:53:02.027Z,59.36
2016-09-13T02:54:12.313Z,59.36
2016-09-13T02:55:22.308Z,59.65
2016-09-13T02:56:32.602Z,59.45
2016-09-13T02:57:42.592Z,59.45
2016-09-13T02:58:52.866Z,59.55
2016-09-13T03:00:03.185Z,59.36
2016-09-13T03:32:34.827Z,57.88
2016-09-13T03:33:44.811Z,58.64
2016-09-13T03:34:54.483Z,59.22
2016-09-13T03:36:04.805Z,59.8
2016-09-13T03:37:14.466Z,60.08
2016-09-13T03:38:24.443Z,60.75
2016-09-13T03:39:34.424Z,60.18
2016-09-13T03:40:44.395Z,60.57
2016-09-13T03:41:54.371Z,60.6
2016-09-13T03:43:04.345Z,60.4
2016-09-13T03:44:14.313Z,60.6
2016-09-13T03:45:23.992Z,60.4
2016-09-13T03:46:34.276Z,60.43
2016-09-13T03:47:44.566Z,60.82
2016-09-13T03:48:54.239Z,60.43
2016-09-13T03:50:04.526Z,60.17
2016-09-13T03:51:14.497Z,60.66
2016-09-13T03:52:24.782Z,60.37
2016-09-13T03:53:34.446Z,60.17
2016-09-13T03:54:44.981Z,60.3
2016-09-13T03:55:55.262Z,60.21
2016-09-13T03:57:05.547Z,60.3
2016-09-13T03:58:15.217Z,60.49
2016-09-13T03:59:24.890Z,60.21
2016-09-13T04:00:35.192Z,60.11
2016-09-13T04:01:45.482Z,59.94
2016-09-13T04:02:55.773Z,59.94
2016-09-13T04:04:05.451Z,60.24
2016-09-13T04:05:15.416Z,60.04
2016-09-13T04:06:25.086Z,59.94
2016-09-13T04:07:35.383Z,59.94
2016-09-13T04:08:45.670Z,60.24
2016-09-13T04:09:55.363Z,60.14
2016-09-13T04:11:05.660Z,60.14
2016-09-13T04:12:15.960Z,59.85
2016-09-13T04:13:26.254Z,59.85
2016-09-13T04:14:36.236Z,59.88
2016-09-13T04:15:46.222Z,59.69
2016-09-13T04:16:56.194Z,59.59
2016-09-13T04:18:06.500Z,59.49
2016-09-13T04:19:16.484Z,59.88
2016-09-13T04:20:26.774Z,59.78
2016-09-13T04:21:37.076Z,59.4
2016-09-13T04:22:46.743Z,59.3
2016-09-13T04:23:57.028Z,59.2
2016-09-13T04:25:07.309Z,59.2
2016-09-13T04:26:17.608Z,59.4
2016-09-13T04:27:27.589Z,59.2
2016-09-13T04:28:37.580Z,59.4
2016-09-13T04:29:47.552Z,59.4
2016-09-13T04:30:57.539Z,59.4
2016-09-13T04:32:07.831Z,59.2
2016-09-13T04:33:17.815Z,59.3
2016-09-13T04:34:27.489Z,59.3
2016-09-13T04:35:37.778Z,59.2
2016-09-13T04:36:47.777Z,59.33
2016-09-13T04:37:58.085Z,59.2
2016-09-13T04:39:08.394Z,59.33
2016-09-13T04:40:18.681Z,59.2
2016-09-13T04:41:28.387Z,59.33
2016-09-13T04:42:38.045Z,59.23
2016-09-13T04:43:48.325Z,59.01
2016-09-13T04:44:58.006Z,59.62
2016-09-13T04:46:08.289Z,59.33
2016-09-13T04:47:18.272Z,59.23
2016-09-13T04:48:28.267Z,59.33
2016-09-13T04:49:38.560Z,59.33
2016-09-13T04:50:48.527Z,59.23
2016-09-13T04:51:58.222Z,59.14
2016-09-13T04:53:08.203Z,58.95
2016-09-13T04:54:17.875Z,58.37
2016-09-13T04:55:28.167Z,59.07
2016-09-13T04:56:38.393Z,58.78
2016-09-13T04:57:48.379Z,59.07
2016-09-13T04:58:58.065Z,58.78
2016-09-13T05:00:08.339Z,58.49
2016-09-13T05:01:18.623Z,58.88
2016-09-13T05:02:28.915Z,58.97
2016-09-13T05:03:39.208Z,58.97
2016-09-13T05:04:49.494Z,58.69
2016-09-13T05:05:59.482Z,58.88
2016-09-13T05:07:09.761Z,58.78
2016-09-13T05:08:19.728Z,58.88
2016-09-13T05:09:30.026Z,58.91
2016-09-13T05:10:40.000Z,58.81
2016-09-13T05:11:49.687Z,58.72
2016-09-13T05:12:59.680Z,58.81
2016-09-13T05:14:09.961Z,59
2016-09-13T05:15:19.952Z,59
2016-09-13T05:16:30.243Z,58.84
2016-09-13T05:17:39.916Z,58.75
2016-09-13T05:18:49.887Z,59.03
2016-09-13T05:19:59.258Z,58.84
2016-09-13T05:21:09.235Z,58.94
2016-09-13T05:22:19.217Z,58.94
2016-09-13T05:23:29.499Z,58.45
2016-09-13T05:24:39.795Z,58.55
2016-09-13T05:25:49.767Z,58.55
2016-09-13T05:26:59.754Z,58.58
2016-09-13T05:28:09.760Z,58.1
2016-09-13T05:29:19.732Z,58.39
2016-09-13T05:30:29.718Z,58.19
2016-09-13T05:31:39.722Z,58.19
2016-09-13T05:32:49.712Z,58.39
2016-09-13T05:34:00.028Z,58.1
2016-09-13T05:35:10.030Z,58
2016-09-13T05:36:20.342Z,58.12
2016-09-13T05:37:30.638Z,57.84
2016-09-13T05:38:40.615Z,57.93
2016-09-13T05:39:50.607Z,58.51
2016-09-13T05:41:00.893Z,58.61
2016-09-13T05:42:10.886Z,57.93
2016-09-13T05:43:20.858Z,58.12
2016-09-13T05:44:31.149Z,58.32
2016-09-13T05:45:41.437Z,58.06
2016-09-13T05:46:51.750Z,57.96
2016-09-13T05:48:02.058Z,57.48
2016-09-13T05:49:12.349Z,58.06
2016-09-13T05:50:22.654Z,57.87
2016-09-13T05:51:32.963Z,57.87
2016-09-13T05:52:42.946Z,57.77
2016-09-13T05:53:52.937Z,57.87
2016-09-13T05:55:02.619Z,58.28
2016-09-13T05:56:12.297Z,58.15
2016-09-13T05:57:22.291Z,57.51
2016-09-13T05:58:32.284Z,57.51
2016-09-13T05:59:42.265Z,57.89
2016-09-13T06:00:52.258Z,57.51
2016-09-13T06:02:02.276Z,57.79
2016-09-13T06:03:12.575Z,57.79
2016-09-13T06:04:22.561Z,58.02
2016-09-13T06:05:32.881Z,58.12
2016-09-13T06:06:43.196Z,57.92
2016-09-13T06:07:52.873Z,58.02
2016-09-13T06:09:02.879Z,57.92
2016-09-13T06:10:12.873Z,57.92
2016-09-13T06:11:22.233Z,57.92
2016-09-13T06:12:32.213Z,57.82
2016-09-13T06:13:42.227Z,57.86
2016-09-13T06:14:52.216Z,58.14
2016-09-13T06:16:02.518Z,58.14
2016-09-13T06:17:12.824Z,58.14
2016-09-13T06:18:22.492Z,58.04
2016-09-13T06:19:32.787Z,58.04
2016-09-13T06:20:43.075Z,57.86
2016-09-13T06:21:53.061Z,58.34
2016-09-13T06:23:03.359Z,57.86
2016-09-13T06:24:13.336Z,57.88
2016-09-13T06:25:23.647Z,57.88
2016-09-13T06:26:33.319Z,58.37
2016-09-13T06:27:43.613Z,58.37
2016-09-13T06:28:53.932Z,57.4
2016-09-13T06:30:03.923Z,57.4
2016-09-13T06:31:13.596Z,57.4
2016-09-13T06:32:23.900Z,57.88
2016-09-13T06:33:33.883Z,57.5
2016-09-13T06:34:43.871Z,57.71
2016-09-13T06:35:53.551Z,57.71
2016-09-13T06:37:02.930Z,57.62
2016-09-13T06:38:13.215Z,57.62
2016-09-13T06:39:23.216Z,57.81
2016-09-13T06:40:33.517Z,57.43
2016-09-13T06:41:43.507Z,57.53
2016-09-13T06:42:53.786Z,57.62
2016-09-13T06:44:04.083Z,57.62
2016-09-13T06:45:14.077Z,57.81
2016-09-13T06:46:24.079Z,57.65
2016-09-13T06:47:34.374Z,57.55
2016-09-13T06:48:44.675Z,57.65
2016-09-13T06:49:54.987Z,57.55
2016-09-13T06:51:04.977Z,57.36
2016-09-13T06:52:14.973Z,57.55
2016-09-13T06:53:25.263Z,57.45
2016-09-13T06:54:35.244Z,57.45
2016-09-13T06:55:45.534Z,57.48
2016-09-13T06:56:55.842Z,57.48
2016-09-13T06:58:05.862Z,57.48
2016-09-13T06:59:16.151Z,57.58
2016-09-13T07:00:26.445Z,57.68
2016-09-13T07:01:36.431Z,57.78
2016-09-13T07:02:46.428Z,57.68
2016-09-13T07:03:56.103Z,57.68
2016-09-13T07:05:05.796Z,57.7
2016-09-13T07:06:16.104Z,57.51
2016-09-13T07:07:25.794Z,57.61
2016-09-13T07:08:35.799Z,57.7
2016-09-13T07:09:45.484Z,58
2016-09-13T07:10:55.789Z,57.42
2016-09-13T07:12:05.170Z,57.51
2016-09-13T07:13:15.168Z,57.93
2016-09-13T07:14:25.160Z,57.93
2016-09-13T07:15:35.161Z,57.54
2016-09-13T07:16:45.443Z,57.06
2016-09-13T07:17:55.741Z,57.25
2016-09-13T07:19:05.133Z,57.15
2016-09-13T07:20:15.127Z,57.25
2016-09-13T07:21:25.139Z,57.06
2016-09-13T07:22:35.140Z,57.18
2016-09-13T07:23:44.817Z,57.28
2016-09-13T07:24:55.134Z,56.98
2016-09-13T07:26:05.136Z,57.28
2016-09-13T07:27:15.148Z,57.08
2016-09-13T07:28:25.154Z,57.18
2016-09-13T07:29:35.135Z,57.01
2016-09-13T07:30:45.436Z,56.72
2016-09-13T07:31:55.429Z,56.72
2016-09-13T07:33:05.427Z,56.82
2016-09-13T07:34:15.420Z,56.82
2016-09-13T07:35:25.416Z,57.21
2016-09-13T07:36:35.697Z,57.14
2016-09-13T07:37:45.989Z,57.23
2016-09-13T07:38:56.280Z,57.33
2016-09-13T07:40:06.590Z,57.04
2016-09-13T07:41:16.884Z,57.33
2016-09-13T07:42:27.196Z,57.26
2016-09-13T07:43:36.883Z,57.07
2016-09-13T07:44:46.869Z,57.14
2016-09-13T07:45:56.540Z,56.97
2016-09-13T07:47:06.854Z,57.07
2016-09-13T07:48:16.234Z,57.07
2016-09-13T07:49:26.217Z,57.26
2016-09-13T07:50:36.227Z,57.26
2016-09-13T07:51:45.915Z,57.07
2016-09-13T07:52:55.915Z,57.1
2016-09-13T07:54:06.210Z,57
2016-09-13T07:55:16.198Z,56.41
2016-09-13T07:56:26.194Z,56.84
2016-09-13T07:57:36.484Z,56.93
2016-09-13T07:58:46.475Z,56.64
2016-09-13T07:59:55.845Z,56.64
2016-09-13T08:01:06.159Z,57.32
2016-09-13T08:02:16.465Z,56.54
2016-09-13T08:03:26.749Z,57.25
2016-09-13T08:04:37.030Z,57.25
2016-09-13T08:05:47.011Z,57.25
2016-09-13T08:06:56.694Z,57.35
2016-09-13T08:08:06.989Z,57.25
2016-09-13T08:09:17.293Z,57.25
2016-09-13T08:10:27.319Z,57.28
2016-09-13T08:11:37.611Z,57.37
2016-09-13T08:12:47.919Z,57.18
2016-09-13T08:13:58.225Z,57.37
2016-09-13T08:15:08.532Z,57.37
2016-09-13T08:16:18.839Z,56.79
2016-09-13T08:17:29.135Z,57.47
2016-09-13T08:18:38.818Z,57.18
2016-09-13T08:19:49.124Z,57.4
2016-09-13T08:20:58.830Z,57.4
2016-09-13T08:22:09.128Z,57.31
2016-09-13T08:23:19.455Z,57.31
2016-09-13T08:24:29.758Z,57.5
2016-09-13T08:25:39.448Z,57.21
2016-09-13T08:26:49.456Z,57.11
2016-09-13T08:27:59.776Z,56.92
2016-09-13T08:29:09.775Z,56.56
2016-09-13T08:30:20.080Z,56.65
2016-09-13T08:31:30.068Z,56.56
2016-09-13T08:32:39.759Z,57.04
2016-09-13T08:33:49.441Z,56.58
2016-09-13T08:34:58.801Z,56.29
2016-09-13T08:36:08.785Z,56.48
2016-09-13T08:37:19.090Z,56.48
2016-09-13T08:38:29.068Z,56.87
2016-09-13T08:39:38.742Z,56.97
2016-09-13T08:40:49.057Z,56.68
2016-09-13T08:41:59.044Z,56.58
2016-09-13T08:43:09.030Z,56.97
2016-09-13T08:44:18.402Z,56.68
2016-09-13T08:45:28.403Z,56.71
2016-09-13T08:46:38.412Z,56.51
2016-09-13T08:47:48.096Z,56.61
2016-09-13T08:48:57.482Z,56.54
2016-09-13T08:50:07.792Z,56.51
2016-09-13T08:51:18.078Z,56.54
2016-09-13T08:52:28.085Z,56.54
2016-09-13T08:53:37.766Z,56.54
2016-09-13T08:54:47.753Z,56.64
2016-09-13T08:55:57.740Z,56.54
2016-09-13T08:57:08.037Z,56.64
2016-09-13T08:58:18.345Z,56.64
2016-09-13T08:59:28.346Z,56.54
2016-09-13T09:00:38.336Z,56.54
2016-09-13T09:01:48.330Z,56.64
2016-09-13T09:02:58.325Z,56.45
2016-09-13T09:04:08.622Z,56.54
2016-09-13T09:05:18.914Z,56.25
2016-09-13T09:06:28.291Z,56.27
2016-09-13T09:07:38.581Z,56.67
2016-09-13T09:08:48.880Z,56.27
2016-09-13T09:09:59.176Z,56.08
2016-09-13T09:11:09.468Z,56.2
2016-09-13T09:12:19.778Z,56.4
2016-09-13T09:13:29.767Z,56.01
2016-09-13T09:14:39.760Z,56.1
2016-09-13T09:15:49.156Z,56.3
2016-09-13T09:16:59.157Z,56.2
2016-09-13T09:18:09.469Z,56.23
2016-09-13T09:19:19.147Z,56.33
2016-09-13T09:20:29.152Z,56.43
2016-09-13T09:21:38.833Z,56.04
2016-09-13T09:22:48.520Z,55.94
2016-09-13T09:23:58.502Z,56.04
2016-09-13T09:25:07.895Z,56.04
2016-09-13T09:26:17.881Z,56.33
2016-09-13T09:27:27.873Z,56.06
2016-09-13T09:28:38.158Z,55.77
2016-09-13T09:29:48.156Z,56.06
2016-09-13T09:30:58.159Z,56.06
2016-09-13T09:32:08.134Z,55.96
2016-09-13T09:33:17.526Z,55.96
2016-09-13T09:34:27.838Z,55.87
2016-09-13T09:35:37.833Z,56.16
2016-09-13T09:36:48.130Z,56.16
2016-09-13T09:37:58.133Z,55.87
2016-09-13T09:39:08.124Z,56.06
2016-09-13T09:40:18.441Z,55.77
2016-09-13T09:41:28.973Z,55.57
2016-09-13T09:42:38.650Z,55.57
2016-09-13T09:43:48.327Z,55.77
2016-09-13T09:44:58.318Z,55.57
2016-09-13T09:46:08.620Z,55.99
2016-09-13T09:47:18.911Z,55.99
2016-09-13T09:48:29.208Z,56.02
2016-09-13T09:49:38.895Z,55.9
2016-09-13T09:50:49.196Z,56.21
2016-09-13T09:51:59.506Z,55.99
2016-09-13T09:53:09.496Z,55.6
2016-09-13T09:54:19.487Z,55.7
2016-09-13T09:55:29.496Z,56.02
2016-09-13T09:56:39.788Z,56.02
2016-09-13T09:57:50.103Z,56.02
2016-09-13T09:58:59.779Z,55.92
2016-09-13T10:00:09.771Z,55.92
2016-09-13T10:01:20.092Z,55.92
2016-09-13T10:02:30.105Z,56.02
2016-09-13T10:03:40.406Z,56.12
2016-09-13T10:04:50.397Z,56.02
2016-09-13T10:06:00.404Z,56.05
2016-09-13T10:07:10.707Z,55.76
2016-09-13T10:08:20.709Z,55.76
2016-09-13T10:09:30.091Z,56.05
2016-09-13T10:10:40.401Z,55.95
2016-09-13T10:11:50.103Z,55.95
2016-09-13T10:13:00.396Z,55.85
2016-09-13T10:14:10.438Z,56.07
2016-09-13T10:15:20.425Z,56.07
2016-09-13T10:16:30.416Z,55.58
2016-09-13T10:17:40.707Z,55.78
2016-09-13T10:18:50.710Z,55.58
2016-09-13T10:20:01.003Z,55.49
2016-09-13T10:21:10.683Z,56.07
2016-09-13T10:22:20.999Z,56.07
2016-09-13T10:23:31.305Z,55.98
2016-09-13T10:24:41.613Z,56.1
2016-09-13T10:25:51.601Z,55.91
2016-09-13T10:27:01.601Z,55.78
2016-09-13T10:28:11.603Z,55.88
2016-09-13T10:29:21.900Z,56.07
2016-09-13T10:30:32.222Z,55.68
2016-09-13T10:31:42.509Z,56.07
2016-09-13T10:32:52.500Z,56.1
2016-09-13T10:34:02.802Z,56.1
2016-09-13T10:35:12.808Z,56.01
2016-09-13T10:36:22.484Z,55.71
2016-09-13T10:37:32.777Z,55.41
2016-09-13T10:38:42.449Z,55.32
2016-09-13T10:39:52.751Z,55.32
2016-09-13T10:41:02.742Z,55.41
2016-09-13T10:42:13.054Z,55.41
2016-09-13T10:43:23.032Z,55.61
2016-09-13T10:44:33.328Z,55.61
2016-09-13T10:45:43.621Z,55.32
2016-09-13T10:46:53.616Z,55.35
2016-09-13T10:48:03.918Z,55.61
2016-09-13T10:49:13.321Z,55.35
2016-09-13T10:50:23.621Z,55.24
2016-09-13T10:51:33.910Z,55.44
2016-09-13T10:52:44.211Z,55.41
2016-09-13T10:53:54.502Z,55.64
2016-09-13T10:55:04.807Z,55.44
2016-09-13T10:56:14.806Z,55.54
2016-09-13T10:57:24.789Z,55.35
2016-09-13T10:58:34.797Z,55.35
2016-09-13T10:59:44.511Z,55.35
2016-09-13T11:00:54.826Z,55.37
2016-09-13T11:02:04.514Z,55.18
2016-09-13T11:03:14.205Z,55.27
2016-09-13T11:04:24.507Z,55.2
2016-09-13T11:05:33.893Z,55.2
2016-09-13T11:06:44.217Z,55
2016-09-13T11:07:53.911Z,54.91
2016-09-13T11:09:04.220Z,55.1
2016-09-13T11:10:14.215Z,55.2
2016-09-13T11:11:24.208Z,55.1
2016-09-13T11:12:34.199Z,55.1
2016-09-13T11:13:44.208Z,55.1
2016-09-13T11:14:54.527Z,55.2
2016-09-13T11:16:04.234Z,55.1
2016-09-13T11:17:14.548Z,55
2016-09-13T11:18:24.855Z,55.2
2016-09-13T11:19:35.160Z,55.23
2016-09-13T11:20:44.535Z,55.13
2016-09-13T11:21:54.847Z,54.93
2016-09-13T11:23:04.530Z,55.23
2016-09-13T11:24:14.857Z,54.93
2016-09-13T11:25:25.165Z,54.83
2016-09-13T11:26:34.850Z,55.23
2016-09-13T11:27:45.085Z,55.13
2016-09-13T11:28:55.382Z,54.93
2016-09-13T11:30:05.392Z,55.23
2016-09-13T11:31:15.080Z,54.74
2016-09-13T11:32:25.373Z,54.93
2016-09-13T11:33:35.668Z,55.16
2016-09-13T11:34:45.670Z,55.03
2016-09-13T11:35:55.968Z,55.23
2016-09-13T11:37:05.982Z,55.16
2016-09-13T11:38:16.315Z,55.13
2016-09-13T11:39:26.008Z,54.96
2016-09-13T11:40:35.991Z,54.96
2016-09-13T11:41:45.685Z,55.26
2016-09-13T11:42:55.377Z,55.06
2016-09-13T11:44:05.373Z,54.96
2016-09-13T11:45:15.674Z,55.16
2016-09-13T11:46:25.972Z,55.16
2016-09-13T11:47:35.963Z,55.16
2016-09-13T11:48:46.264Z,55.16
2016-09-13T11:49:55.957Z,54.86
2016-09-13T11:51:05.645Z,54.86
2016-09-13T11:52:15.709Z,54.96
2016-09-13T11:53:26.007Z,54.96
2016-09-13T11:54:35.997Z,54.96
2016-09-13T11:55:45.995Z,54.76
2016-09-13T11:56:56.316Z,54.96
2016-09-13T11:58:06.308Z,55.08
2016-09-13T11:59:16.605Z,54.79
2016-09-13T12:00:26.610Z,55.18
2016-09-13T12:01:36.920Z,55.08
2016-09-13T12:02:46.921Z,54.69
2016-09-13T12:03:56.914Z,54.79
2016-09-13T12:05:06.920Z,55.08
2016-09-13T12:06:16.936Z,55.18
2016-09-13T12:07:26.941Z,54.99
2016-09-13T12:08:36.649Z,54.96
2016-09-13T12:09:46.945Z,54.99
2016-09-13T12:10:56.931Z,54.86
2016-09-13T12:12:07.249Z,54.99
2016-09-13T12:13:17.565Z,54.96
2016-09-13T12:14:27.251Z,54.99
2016-09-13T12:15:37.547Z,54.99
2016-09-13T12:16:47.539Z,55.18
2016-09-13T12:17:57.571Z,55.18
2016-09-13T12:19:07.876Z,54.89
2016-09-13T12:20:17.594Z,54.99
2016-09-13T12:21:27.890Z,55.28
2016-09-13T12:22:37.563Z,54.99
2016-09-13T12:23:47.559Z,54.99
2016-09-13T12:24:57.889Z,54.99
2016-09-13T12:26:07.591Z,55.16
2016-09-13T12:27:17.573Z,54.89
2016-09-13T12:28:27.867Z,54.89
2016-09-13T12:29:38.186Z,54.89
2016-09-13T12:30:48.199Z,55.18
2016-09-13T12:31:58.218Z,55.08
2016-09-13T12:33:07.901Z,55.18
2016-09-13T12:34:17.904Z,54.99
2016-09-13T12:35:27.909Z,54.89
2016-09-13T12:36:38.230Z,54.99
2016-09-13T12:37:48.227Z,54.99
2016-09-13T12:38:58.228Z,55.18
2016-09-13T12:40:08.230Z,55.28
2016-09-13T12:41:18.237Z,54.99
2016-09-13T12:42:28.561Z,55.08
2016-09-13T12:43:38.871Z,55.18
2016-09-13T12:44:49.202Z,54.89
2016-09-13T12:45:59.548Z,54.76
2016-09-13T12:47:09.867Z,55.28
2016-09-13T12:48:19.866Z,54.79
2016-09-13T12:49:29.873Z,55.08
2016-09-13T12:50:40.180Z,54.89
2016-09-13T12:51:50.186Z,54.89
2016-09-13T12:53:00.240Z,55.18
2016-09-13T12:54:09.939Z,55.11
2016-09-13T12:55:19.636Z,54.72
2016-09-13T12:56:29.947Z,54.72
2016-09-13T12:57:40.240Z,54.91
2016-09-13T12:58:50.231Z,55.01
2016-09-13T13:00:00.183Z,55.21
2016-09-13T13:01:10.484Z,55.11
2016-09-13T13:02:20.491Z,54.91
2016-09-13T13:03:30.791Z,54.79
2016-09-13T13:04:41.101Z,55.28
2016-09-13T13:05:51.095Z,54.79
2016-09-13T13:07:01.392Z,54.89
2016-09-13T13:08:11.068Z,55.11
2016-09-13T13:09:21.378Z,55.18
2016-09-13T13:10:31.382Z,55.18
2016-09-13T13:11:41.414Z,55.31
2016-09-13T13:12:51.722Z,55.01
2016-09-13T13:14:02.039Z,55.18
2016-09-13T13:15:12.041Z,55.18
2016-09-13T13:16:22.036Z,55.38
2016-09-13T13:17:32.022Z,55.08
2016-09-13T13:18:42.309Z,55.45
2016-09-13T13:19:51.994Z,55.28
2016-09-13T13:21:01.990Z,54.99
2016-09-13T13:22:11.979Z,55.18
2016-09-13T13:23:22.305Z,55.06
2016-09-13T13:24:32.618Z,54.96
2016-09-13T13:25:42.924Z,55.08
2016-09-13T13:26:52.931Z,54.99
2016-09-13T13:28:02.944Z,55.16
2016-09-13T13:29:12.951Z,55.16
2016-09-13T13:30:23.262Z,55.16
2016-09-13T13:31:33.256Z,55.26
2016-09-13T13:32:43.593Z,55.08
2016-09-13T13:33:52.991Z,55.16
2016-09-13T13:35:02.677Z,55.06
2016-09-13T13:36:12.670Z,55.06
2016-09-13T13:37:22.685Z,55.08
2016-09-13T13:38:33.004Z,55.28
2016-09-13T13:39:42.706Z,55.28
2016-09-13T13:40:53.025Z,55.26
2016-09-13T13:42:03.316Z,55.26
2016-09-13T13:43:13.345Z,55.18
2016-09-13T13:44:23.645Z,54.99
2016-09-13T13:45:33.946Z,55.01
2016-09-13T13:46:43.939Z,54.91
2016-09-13T13:47:53.954Z,55.11
2016-09-13T13:49:04.188Z,55.01
2016-09-13T13:50:14.489Z,55.01
2016-09-13T13:51:24.475Z,55.11
2016-09-13T13:52:34.162Z,55.01
2016-09-13T13:53:44.470Z,54.91
2016-09-13T13:54:54.464Z,55.01
2016-09-13T13:56:04.772Z,55.01
2016-09-13T13:57:14.780Z,54.82
2016-09-13T13:58:25.072Z,55.01
2016-09-13T13:59:35.072Z,55.01
2016-09-13T14:00:45.091Z,55.21
2016-09-13T14:01:55.095Z,55.18
2016-09-13T14:03:04.787Z,55.08
2016-09-13T14:04:14.792Z,54.82
2016-09-13T14:05:25.125Z,55.18
2016-09-13T14:06:35.109Z,55.21
2016-09-13T14:07:45.120Z,54.79
2016-09-13T14:08:55.116Z,54.99
2016-09-13T14:10:04.814Z,55.18
2016-09-13T14:11:14.839Z,55.18
2016-09-13T14:12:24.533Z,55.28
2016-09-13T14:13:34.843Z,55.28
2016-09-13T14:14:45.157Z,55.18
2016-09-13T14:15:55.443Z,55.38
2016-09-13T14:17:05.760Z,55.18
2016-09-13T14:18:16.092Z,55.18
2016-09-13T14:19:26.393Z,55.28
2016-09-13T14:20:36.425Z,55.18
2016-09-13T14:21:46.730Z,55.51
2016-09-13T14:22:56.724Z,55.31
2016-09-13T14:24:06.407Z,55.28
2016-09-13T14:25:16.706Z,55.31
2016-09-13T14:26:26.998Z,55.38
2016-09-13T14:27:37.015Z,55.41
2016-09-13T14:28:47.004Z,55.6
2016-09-13T14:29:57.009Z,55.68
2016-09-13T14:31:06.693Z,55.6
2016-09-13T14:32:16.999Z,55.77
2016-09-13T14:33:26.994Z,55.77
2016-09-13T14:34:37.305Z,55.87
2016-09-13T14:35:47.608Z,56.27
2016-09-13T14:36:57.911Z,56.27
2016-09-13T14:38:08.224Z,55.87
2016-09-13T14:39:18.229Z,55.94
2016-09-13T14:40:28.541Z,55.87
2016-09-13T14:41:38.837Z,55.94
2016-09-13T14:42:48.833Z,56.04
2016-09-13T14:43:59.132Z,56.24
2016-09-13T14:45:08.877Z,56.24
2016-09-13T14:46:18.889Z,55.85
2016-09-13T14:47:29.191Z,55.85
2016-09-13T14:48:39.198Z,55.75
2016-09-13T14:49:49.501Z,56.04
2016-09-13T14:50:59.503Z,55.75
2016-09-13T14:52:09.813Z,55.91
2016-09-13T14:53:19.501Z,56.04
2016-09-13T14:54:29.495Z,56.31
2016-09-13T14:55:39.780Z,56.31
2016-09-13T14:56:50.082Z,56.18
2016-09-13T14:57:59.778Z,56.09
2016-09-13T14:59:09.764Z,56.28
2016-09-13T15:00:19.764Z,56.09
2016-09-13T15:01:30.049Z,56.38
2016-09-13T15:02:40.043Z,56.28
2016-09-13T15:03:50.021Z,56.28
2016-09-13T15:04:59.709Z,56.18
2016-09-13T15:06:10.042Z,56.38
2016-09-13T15:07:20.027Z,56.09
2016-09-13T15:08:30.330Z,56.38
2016-09-13T15:09:40.635Z,56.28
2016-09-13T15:10:50.317Z,56.28
2016-09-13T15:12:00.610Z,56.55
2016-09-13T15:13:10.943Z,56.35
2016-09-13T15:14:20.949Z,56.65
2016-09-13T15:15:30.958Z,56.74
2016-09-13T15:16:41.257Z,56.74
2016-09-13T15:17:51.253Z,56.82
2016-09-13T15:19:01.569Z,56.52
2016-09-13T15:20:11.876Z,56.42
2016-09-13T15:21:22.178Z,56.92
2016-09-13T15:22:32.178Z,56.92
2016-09-13T15:23:42.479Z,56.52
2016-09-13T15:24:52.806Z,56.52
2016-09-13T15:26:03.130Z,57.01
2016-09-13T15:27:13.123Z,56.79
2016-09-13T15:28:22.813Z,56.88
2016-09-13T15:29:32.810Z,57.08
2016-09-13T15:30:43.112Z,56.49
2016-09-13T15:31:53.139Z,57.18
2016-09-13T15:33:02.830Z,56.86
2016-09-13T15:34:13.142Z,57.35
2016-09-13T15:35:23.445Z,57.45
2016-09-13T15:36:33.746Z,57.84